sensor_id;sensor_type;location;lat;lon;timestamp;P1;durP1;ratioP1;P2;durP2;ratioP2
74941;SDS011;63506;49.346;8.798;2024-01-30T00:00:54;9.07;;;5.65;;
74941;SDS011;63506;49.346;8.798;2024-01-30T00:03:42;8.65;;;6.07;;
74941;SDS011;63506;49.346;8.798;2024-01-30T00:06:28;11.35;;;6.35;;
74941;SDS011;63506;49.346;8.798;2024-01-30T00:09:14;7.95;;;4.40;;
74941;SDS011;63506;49.346;8.798;2024-01-30T00:12:02;9.93;;;5.38;;
74941;SDS011;63506;49.346;8.798;2024-01-30T00:14:50;11.00;;;5.80;;
74941;SDS011;63506;49.346;8.798;2024-01-30T00:17:36;13.35;;;5.57;;
74941;SDS011;63506;49.346;8.798;2024-01-30T00:20:22;11.07;;;4.85;;
74941;SDS011;63506;49.346;8.798;2024-01-30T00:23:08;12.18;;;5.30;;
74941;SDS011;63506;49.346;8.798;2024-01-30T00:25:54;9.07;;;4.97;;
74941;SDS011;63506;49.346;8.798;2024-01-30T00:28:41;9.23;;;6.00;;
74941;SDS011;63506;49.346;8.798;2024-01-30T00:31:27;10.23;;;5.43;;
74941;SDS011;63506;49.346;8.798;2024-01-30T00:34:14;10.80;;;5.57;;
74941;SDS011;63506;49.346;8.798;2024-01-30T00:37:02;7.10;;;4.43;;
74941;SDS011;63506;49.346;8.798;2024-01-30T00:39:51;8.73;;;5.07;;
74941;SDS011;63506;49.346;8.798;2024-01-30T00:42:36;7.20;;;4.50;;
74941;SDS011;63506;49.346;8.798;2024-01-30T00:45:26;9.27;;;4.82;;
74941;SDS011;63506;49.346;8.798;2024-01-30T00:48:12;8.90;;;4.40;;
74941;SDS011;63506;49.346;8.798;2024-01-30T00:50:58;7.68;;;4.95;;
74941;SDS011;63506;49.346;8.798;2024-01-30T00:53:46;10.10;;;5.90;;
74941;SDS011;63506;49.346;8.798;2024-01-30T00:56:32;7.78;;;4.70;;
74941;SDS011;63506;49.346;8.798;2024-01-30T00:59:18;9.18;;;5.00;;
74941;SDS011;63506;49.346;8.798;2024-01-30T01:02:05;8.80;;;4.43;;
74941;SDS011;63506;49.346;8.798;2024-01-30T01:04:56;9.38;;;4.07;;
74941;SDS011;63506;49.346;8.798;2024-01-30T01:07:42;5.43;;;4.45;;
74941;SDS011;63506;49.346;8.798;2024-01-30T01:10:28;11.50;;;5.25;;
74941;SDS011;63506;49.346;8.798;2024-01-30T01:13:16;8.75;;;4.25;;
74941;SDS011;63506;49.346;8.798;2024-01-30T01:16:05;8.13;;;4.20;;
74941;SDS011;63506;49.346;8.798;2024-01-30T01:18:52;7.95;;;4.22;;
74941;SDS011;63506;49.346;8.798;2024-01-30T01:21:38;7.40;;;4.68;;
74941;SDS011;63506;49.346;8.798;2024-01-30T01:24:24;10.20;;;4.70;;
74941;SDS011;63506;49.346;8.798;2024-01-30T01:27:10;8.77;;;5.35;;
74941;SDS011;63506;49.346;8.798;2024-01-30T01:29:56;5.88;;;3.70;;
74941;SDS011;63506;49.346;8.798;2024-01-30T01:32:41;8.05;;;4.13;;
74941;SDS011;63506;49.346;8.798;2024-01-30T01:35:34;6.22;;;4.22;;
74941;SDS011;63506;49.346;8.798;2024-01-30T01:38:20;9.45;;;4.68;;
74941;SDS011;63506;49.346;8.798;2024-01-30T01:41:06;9.38;;;4.45;;
74941;SDS011;63506;49.346;8.798;2024-01-30T01:43:52;8.45;;;4.25;;
74941;SDS011;63506;49.346;8.798;2024-01-30T01:46:38;8.15;;;4.15;;
74941;SDS011;63506;49.346;8.798;2024-01-30T01:49:24;6.75;;;3.78;;
74941;SDS011;63506;49.346;8.798;2024-01-30T01:52:12;9.93;;;3.80;;
74941;SDS011;63506;49.346;8.798;2024-01-30T01:54:58;7.10;;;3.90;;
74941;SDS011;63506;49.346;8.798;2024-01-30T01:57:44;6.70;;;4.22;;
74941;SDS011;63506;49.346;8.798;2024-01-30T02:00:31;9.55;;;4.63;;
74941;SDS011;63506;49.346;8.798;2024-01-30T02:03:17;9.18;;;4.32;;
74941;SDS011;63506;49.346;8.798;2024-01-30T02:06:06;10.43;;;4.30;;
74941;SDS011;63506;49.346;8.798;2024-01-30T02:08:53;7.45;;;3.92;;
74941;SDS011;63506;49.346;8.798;2024-01-30T02:11:39;6.68;;;3.42;;
74941;SDS011;63506;49.346;8.798;2024-01-30T02:14:28;9.88;;;3.90;;
74941;SDS011;63506;49.346;8.798;2024-01-30T02:17:13;9.07;;;3.42;;
74941;SDS011;63506;49.346;8.798;2024-01-30T02:19:59;7.75;;;4.05;;
74941;SDS011;63506;49.346;8.798;2024-01-30T02:22:47;6.82;;;3.90;;
74941;SDS011;63506;49.346;8.798;2024-01-30T02:25:34;7.82;;;4.15;;
74941;SDS011;63506;49.346;8.798;2024-01-30T02:28:24;7.07;;;4.25;;
74941;SDS011;63506;49.346;8.798;2024-01-30T02:31:10;8.45;;;5.05;;
74941;SDS011;63506;49.346;8.798;2024-01-30T02:33:56;9.73;;;4.70;;
74941;SDS011;63506;49.346;8.798;2024-01-30T02:36:45;8.55;;;4.68;;
74941;SDS011;63506;49.346;8.798;2024-01-30T02:39:32;9.70;;;4.50;;
74941;SDS011;63506;49.346;8.798;2024-01-30T02:42:18;5.18;;;3.50;;
74941;SDS011;63506;49.346;8.798;2024-01-30T02:45:04;10.65;;;4.85;;
74941;SDS011;63506;49.346;8.798;2024-01-30T02:47:51;6.25;;;4.05;;
74941;SDS011;63506;49.346;8.798;2024-01-30T02:50:42;9.00;;;4.35;;
74941;SDS011;63506;49.346;8.798;2024-01-30T02:53:28;8.10;;;4.10;;
74941;SDS011;63506;49.346;8.798;2024-01-30T02:56:16;7.53;;;3.83;;
74941;SDS011;63506;49.346;8.798;2024-01-30T02:59:01;10.25;;;5.05;;
74941;SDS011;63506;49.346;8.798;2024-01-30T03:01:47;7.35;;;4.38;;
74941;SDS011;63506;49.346;8.798;2024-01-30T03:04:33;8.80;;;3.92;;
74941;SDS011;63506;49.346;8.798;2024-01-30T03:07:19;8.52;;;4.20;;
74941;SDS011;63506;49.346;8.798;2024-01-30T03:10:05;8.02;;;4.38;;
74941;SDS011;63506;49.346;8.798;2024-01-30T03:15:48;10.27;;;4.78;;
74941;SDS011;63506;49.346;8.798;2024-01-30T03:18:37;8.68;;;4.88;;
74941;SDS011;63506;49.346;8.798;2024-01-30T03:21:25;13.00;;;4.88;;
74941;SDS011;63506;49.346;8.798;2024-01-30T03:24:11;7.18;;;3.92;;
74941;SDS011;63506;49.346;8.798;2024-01-30T03:26:57;10.23;;;5.10;;
74941;SDS011;63506;49.346;8.798;2024-01-30T03:29:43;8.23;;;5.28;;
74941;SDS011;63506;49.346;8.798;2024-01-30T03:32:33;7.80;;;4.95;;
74941;SDS011;63506;49.346;8.798;2024-01-30T03:35:21;10.18;;;4.40;;
74941;SDS011;63506;49.346;8.798;2024-01-30T03:38:09;11.50;;;5.90;;
74941;SDS011;63506;49.346;8.798;2024-01-30T03:40:55;8.23;;;4.38;;
74941;SDS011;63506;49.346;8.798;2024-01-30T03:43:43;8.82;;;4.68;;
74941;SDS011;63506;49.346;8.798;2024-01-30T03:46:32;6.00;;;3.80;;
74941;SDS011;63506;49.346;8.798;2024-01-30T03:49:19;7.82;;;5.00;;
74941;SDS011;63506;49.346;8.798;2024-01-30T03:52:05;10.80;;;5.95;;
74941;SDS011;63506;49.346;8.798;2024-01-30T03:54:53;5.63;;;4.05;;
74941;SDS011;63506;49.346;8.798;2024-01-30T03:57:40;6.82;;;4.15;;
74941;SDS011;63506;49.346;8.798;2024-01-30T04:00:26;8.70;;;3.78;;
74941;SDS011;63506;49.346;8.798;2024-01-30T04:03:12;6.95;;;4.07;;
74941;SDS011;63506;49.346;8.798;2024-01-30T04:05:59;8.50;;;3.85;;
74941;SDS011;63506;49.346;8.798;2024-01-30T04:08:47;8.55;;;4.45;;
74941;SDS011;63506;49.346;8.798;2024-01-30T04:11:36;10.88;;;5.03;;
74941;SDS011;63506;49.346;8.798;2024-01-30T04:14:22;11.18;;;5.30;;
74941;SDS011;63506;49.346;8.798;2024-01-30T04:17:11;9.73;;;4.72;;
74941;SDS011;63506;49.346;8.798;2024-01-30T04:19:57;7.45;;;4.47;;
74941;SDS011;63506;49.346;8.798;2024-01-30T04:22:44;7.80;;;4.93;;
74941;SDS011;63506;49.346;8.798;2024-01-30T04:25:30;6.00;;;3.53;;
74941;SDS011;63506;49.346;8.798;2024-01-30T04:28:21;7.53;;;4.30;;
74941;SDS011;63506;49.346;8.798;2024-01-30T04:31:07;6.13;;;3.35;;
74941;SDS011;63506;49.346;8.798;2024-01-30T04:33:53;8.88;;;4.35;;
74941;SDS011;63506;49.346;8.798;2024-01-30T04:36:39;7.40;;;3.92;;
74941;SDS011;63506;49.346;8.798;2024-01-30T04:39:27;5.88;;;3.83;;
74941;SDS011;63506;49.346;8.798;2024-01-30T04:42:15;10.52;;;4.43;;
74941;SDS011;63506;49.346;8.798;2024-01-30T04:45:02;5.20;;;3.28;;
74941;SDS011;63506;49.346;8.798;2024-01-30T04:47:48;6.18;;;3.70;;
74941;SDS011;63506;49.346;8.798;2024-01-30T04:50:34;11.65;;;3.88;;
74941;SDS011;63506;49.346;8.798;2024-01-30T04:53:23;5.25;;;3.50;;
74941;SDS011;63506;49.346;8.798;2024-01-30T04:56:10;5.07;;;3.08;;
74941;SDS011;63506;49.346;8.798;2024-01-30T04:58:56;5.65;;;2.88;;
74941;SDS011;63506;49.346;8.798;2024-01-30T05:01:44;5.00;;;3.20;;
74941;SDS011;63506;49.346;8.798;2024-01-30T05:04:30;4.68;;;2.78;;
74941;SDS011;63506;49.346;8.798;2024-01-30T05:07:16;7.28;;;3.88;;
74941;SDS011;63506;49.346;8.798;2024-01-30T05:10:04;6.90;;;3.28;;
74941;SDS011;63506;49.346;8.798;2024-01-30T05:12:52;7.07;;;3.88;;
74941;SDS011;63506;49.346;8.798;2024-01-30T05:15:37;9.77;;;3.60;;
74941;SDS011;63506;49.346;8.798;2024-01-30T05:18:26;7.60;;;3.33;;
74941;SDS011;63506;49.346;8.798;2024-01-30T05:21:11;5.38;;;3.40;;
74941;SDS011;63506;49.346;8.798;2024-01-30T05:23:57;8.88;;;3.83;;
74941;SDS011;63506;49.346;8.798;2024-01-30T05:26:45;6.78;;;3.92;;
74941;SDS011;63506;49.346;8.798;2024-01-30T05:29:33;4.90;;;3.15;;
74941;SDS011;63506;49.346;8.798;2024-01-30T05:32:19;7.00;;;3.10;;
74941;SDS011;63506;49.346;8.798;2024-01-30T05:35:05;7.35;;;3.55;;
74941;SDS011;63506;49.346;8.798;2024-01-30T05:37:55;4.30;;;2.70;;
74941;SDS011;63506;49.346;8.798;2024-01-30T05:40:43;5.00;;;2.83;;
74941;SDS011;63506;49.346;8.798;2024-01-30T05:43:30;8.55;;;3.47;;
74941;SDS011;63506;49.346;8.798;2024-01-30T05:46:17;6.68;;;3.55;;
74941;SDS011;63506;49.346;8.798;2024-01-30T05:49:03;7.07;;;4.05;;
74941;SDS011;63506;49.346;8.798;2024-01-30T05:51:53;6.57;;;4.47;;
74941;SDS011;63506;49.346;8.798;2024-01-30T05:54:39;7.63;;;3.70;;
74941;SDS011;63506;49.346;8.798;2024-01-30T05:57:25;4.47;;;3.25;;
74941;SDS011;63506;49.346;8.798;2024-01-30T06:00:11;6.20;;;3.00;;
74941;SDS011;63506;49.346;8.798;2024-01-30T06:03:01;8.60;;;4.18;;
74941;SDS011;63506;49.346;8.798;2024-01-30T06:05:48;9.57;;;4.00;;
74941;SDS011;63506;49.346;8.798;2024-01-30T06:08:34;13.50;;;4.38;;
74941;SDS011;63506;49.346;8.798;2024-01-30T06:11:20;13.73;;;5.78;;
74941;SDS011;63506;49.346;8.798;2024-01-30T06:14:08;7.57;;;4.30;;
74941;SDS011;63506;49.346;8.798;2024-01-30T06:16:55;7.30;;;3.63;;
74941;SDS011;63506;49.346;8.798;2024-01-30T06:19:45;8.23;;;4.43;;
74941;SDS011;63506;49.346;8.798;2024-01-30T06:22:30;6.60;;;3.75;;
74941;SDS011;63506;49.346;8.798;2024-01-30T06:25:19;4.07;;;3.10;;
74941;SDS011;63506;49.346;8.798;2024-01-30T06:28:07;6.70;;;3.47;;
74941;SDS011;63506;49.346;8.798;2024-01-30T06:30:56;9.32;;;3.85;;
74941;SDS011;63506;49.346;8.798;2024-01-30T06:33:42;9.55;;;3.65;;
74941;SDS011;63506;49.346;8.798;2024-01-30T06:36:29;5.53;;;3.20;;
74941;SDS011;63506;49.346;8.798;2024-01-30T06:39:18;6.15;;;3.83;;
74941;SDS011;63506;49.346;8.798;2024-01-30T06:42:06;5.53;;;3.30;;
74941;SDS011;63506;49.346;8.798;2024-01-30T06:44:57;7.15;;;3.05;;
74941;SDS011;63506;49.346;8.798;2024-01-30T06:47:47;7.82;;;3.83;;
74941;SDS011;63506;49.346;8.798;2024-01-30T06:50:33;6.68;;;3.42;;
74941;SDS011;63506;49.346;8.798;2024-01-30T06:53:22;6.78;;;3.47;;
74941;SDS011;63506;49.346;8.798;2024-01-30T06:56:11;10.63;;;4.60;;
74941;SDS011;63506;49.346;8.798;2024-01-30T06:58:56;8.77;;;4.68;;
74941;SDS011;63506;49.346;8.798;2024-01-30T07:01:44;10.60;;;4.28;;
74941;SDS011;63506;49.346;8.798;2024-01-30T07:04:30;7.90;;;4.05;;
74941;SDS011;63506;49.346;8.798;2024-01-30T07:07:19;12.35;;;4.78;;
74941;SDS011;63506;49.346;8.798;2024-01-30T07:10:09;9.48;;;4.70;;
74941;SDS011;63506;49.346;8.798;2024-01-30T07:12:57;7.85;;;4.32;;
74941;SDS011;63506;49.346;8.798;2024-01-30T07:15:46;8.82;;;4.47;;
74941;SDS011;63506;49.346;8.798;2024-01-30T07:18:34;5.38;;;4.13;;
74941;SDS011;63506;49.346;8.798;2024-01-30T07:21:20;8.52;;;4.03;;
74941;SDS011;63506;49.346;8.798;2024-01-30T07:24:14;10.45;;;4.50;;
74941;SDS011;63506;49.346;8.798;2024-01-30T07:27:04;10.00;;;5.10;;
74941;SDS011;63506;49.346;8.798;2024-01-30T07:29:53;8.98;;;4.28;;
74941;SDS011;63506;49.346;8.798;2024-01-30T07:32:39;9.73;;;4.72;;
74941;SDS011;63506;49.346;8.798;2024-01-30T07:35:24;9.25;;;5.07;;
74941;SDS011;63506;49.346;8.798;2024-01-30T07:38:15;8.38;;;5.03;;
74941;SDS011;63506;49.346;8.798;2024-01-30T07:41:01;9.02;;;4.70;;
74941;SDS011;63506;49.346;8.798;2024-01-30T07:43:48;10.70;;;5.82;;
74941;SDS011;63506;49.346;8.798;2024-01-30T07:46:36;11.32;;;5.32;;
74941;SDS011;63506;49.346;8.798;2024-01-30T07:49:25;11.20;;;4.97;;
74941;SDS011;63506;49.346;8.798;2024-01-30T07:52:11;9.60;;;5.80;;
74941;SDS011;63506;49.346;8.798;2024-01-30T07:54:57;13.70;;;6.00;;
74941;SDS011;63506;49.346;8.798;2024-01-30T07:57:48;9.20;;;4.05;;
74941;SDS011;63506;49.346;8.798;2024-01-30T08:00:35;11.00;;;4.85;;
74941;SDS011;63506;49.346;8.798;2024-01-30T08:03:22;10.13;;;5.43;;
74941;SDS011;63506;49.346;8.798;2024-01-30T08:06:10;11.63;;;5.70;;
74941;SDS011;63506;49.346;8.798;2024-01-30T08:08:56;10.20;;;5.70;;
74941;SDS011;63506;49.346;8.798;2024-01-30T08:11:43;9.07;;;4.57;;
74941;SDS011;63506;49.346;8.798;2024-01-30T08:14:32;14.18;;;5.35;;
74941;SDS011;63506;49.346;8.798;2024-01-30T08:17:19;11.30;;;5.97;;
74941;SDS011;63506;49.346;8.798;2024-01-30T08:20:08;8.00;;;4.60;;
74941;SDS011;63506;49.346;8.798;2024-01-30T08:22:57;11.05;;;5.20;;
74941;SDS011;63506;49.346;8.798;2024-01-30T08:25:47;11.90;;;5.20;;
74941;SDS011;63506;49.346;8.798;2024-01-30T08:28:35;8.50;;;5.30;;
74941;SDS011;63506;49.346;8.798;2024-01-30T08:31:21;9.50;;;5.82;;
74941;SDS011;63506;49.346;8.798;2024-01-30T08:34:08;10.20;;;5.47;;
74941;SDS011;63506;49.346;8.798;2024-01-30T08:36:54;7.82;;;5.07;;
74941;SDS011;63506;49.346;8.798;2024-01-30T08:39:40;13.88;;;5.35;;
74941;SDS011;63506;49.346;8.798;2024-01-30T08:42:29;12.68;;;5.60;;
74941;SDS011;63506;49.346;8.798;2024-01-30T08:45:17;11.80;;;6.13;;
74941;SDS011;63506;49.346;8.798;2024-01-30T08:48:03;9.40;;;5.45;;
74941;SDS011;63506;49.346;8.798;2024-01-30T08:50:54;8.30;;;4.95;;
74941;SDS011;63506;49.346;8.798;2024-01-30T08:53:39;11.20;;;4.50;;
74941;SDS011;63506;49.346;8.798;2024-01-30T08:56:25;8.38;;;5.05;;
74941;SDS011;63506;49.346;8.798;2024-01-30T08:59:13;10.75;;;5.07;;
74941;SDS011;63506;49.346;8.798;2024-01-30T09:01:59;8.18;;;5.10;;
74941;SDS011;63506;49.346;8.798;2024-01-30T09:04:47;10.70;;;5.40;;
74941;SDS011;63506;49.346;8.798;2024-01-30T09:07:35;8.50;;;4.63;;
74941;SDS011;63506;49.346;8.798;2024-01-30T09:10:23;7.95;;;4.28;;
74941;SDS011;63506;49.346;8.798;2024-01-30T09:13:09;10.00;;;4.40;;
74941;SDS011;63506;49.346;8.798;2024-01-30T09:15:57;11.77;;;5.07;;
74941;SDS011;63506;49.346;8.798;2024-01-30T09:18:43;8.57;;;5.32;;
74941;SDS011;63506;49.346;8.798;2024-01-30T09:21:29;13.18;;;5.70;;
74941;SDS011;63506;49.346;8.798;2024-01-30T09:24:16;8.52;;;5.07;;
74941;SDS011;63506;49.346;8.798;2024-01-30T09:27:03;10.05;;;5.45;;
74941;SDS011;63506;49.346;8.798;2024-01-30T09:29:49;10.82;;;5.88;;
74941;SDS011;63506;49.346;8.798;2024-01-30T09:32:35;10.65;;;6.03;;
74941;SDS011;63506;49.346;8.798;2024-01-30T09:35:20;12.95;;;5.40;;
74941;SDS011;63506;49.346;8.798;2024-01-30T09:38:06;8.40;;;5.18;;
74941;SDS011;63506;49.346;8.798;2024-01-30T09:40:56;10.40;;;6.20;;
74941;SDS011;63506;49.346;8.798;2024-01-30T09:43:45;11.82;;;6.15;;
74941;SDS011;63506;49.346;8.798;2024-01-30T09:46:33;10.48;;;5.18;;
74941;SDS011;63506;49.346;8.798;2024-01-30T09:49:20;9.30;;;5.80;;
74941;SDS011;63506;49.346;8.798;2024-01-30T09:52:08;9.80;;;5.70;;
74941;SDS011;63506;49.346;8.798;2024-01-30T09:54:54;9.70;;;5.95;;
74941;SDS011;63506;49.346;8.798;2024-01-30T09:57:42;12.32;;;6.88;;
74941;SDS011;63506;49.346;8.798;2024-01-30T10:00:28;10.00;;;6.18;;
74941;SDS011;63506;49.346;8.798;2024-01-30T10:03:16;11.10;;;6.78;;
74941;SDS011;63506;49.346;8.798;2024-01-30T10:06:04;11.05;;;6.90;;
74941;SDS011;63506;49.346;8.798;2024-01-30T10:08:51;12.65;;;7.32;;
74941;SDS011;63506;49.346;8.798;2024-01-30T10:11:37;14.27;;;7.07;;
74941;SDS011;63506;49.346;8.798;2024-01-30T10:14:24;11.07;;;6.35;;
74941;SDS011;63506;49.346;8.798;2024-01-30T10:17:11;13.88;;;6.78;;
74941;SDS011;63506;49.346;8.798;2024-01-30T10:19:57;11.63;;;6.25;;
74941;SDS011;63506;49.346;8.798;2024-01-30T10:22:43;9.90;;;6.18;;
74941;SDS011;63506;49.346;8.798;2024-01-30T10:25:30;9.05;;;5.95;;
74941;SDS011;63506;49.346;8.798;2024-01-30T10:28:16;8.65;;;5.97;;
74941;SDS011;63506;49.346;8.798;2024-01-30T10:31:04;10.38;;;6.05;;
74941;SDS011;63506;49.346;8.798;2024-01-30T10:33:50;10.52;;;5.82;;
74941;SDS011;63506;49.346;8.798;2024-01-30T10:36:39;9.00;;;5.75;;
74941;SDS011;63506;49.346;8.798;2024-01-30T10:39:26;10.15;;;5.72;;
74941;SDS011;63506;49.346;8.798;2024-01-30T10:42:15;11.30;;;5.38;;
74941;SDS011;63506;49.346;8.798;2024-01-30T10:45:05;9.63;;;5.97;;
74941;SDS011;63506;49.346;8.798;2024-01-30T10:47:56;10.65;;;6.32;;
74941;SDS011;63506;49.346;8.798;2024-01-30T10:50:45;9.18;;;5.75;;
74941;SDS011;63506;49.346;8.798;2024-01-30T10:53:32;8.57;;;5.38;;
74941;SDS011;63506;49.346;8.798;2024-01-30T10:56:18;12.75;;;7.30;;
74941;SDS011;63506;49.346;8.798;2024-01-30T10:59:09;10.13;;;5.65;;
74941;SDS011;63506;49.346;8.798;2024-01-30T11:01:56;14.07;;;6.68;;
74941;SDS011;63506;49.346;8.798;2024-01-30T11:04:43;13.75;;;6.82;;
74941;SDS011;63506;49.346;8.798;2024-01-30T11:07:32;12.95;;;7.60;;
74941;SDS011;63506;49.346;8.798;2024-01-30T11:10:18;12.05;;;7.45;;
74941;SDS011;63506;49.346;8.798;2024-01-30T11:13:22;11.68;;;7.07;;
74941;SDS011;63506;49.346;8.798;2024-01-30T11:16:12;9.82;;;7.00;;
74941;SDS011;63506;49.346;8.798;2024-01-30T11:19:00;14.23;;;7.45;;
74941;SDS011;63506;49.346;8.798;2024-01-30T11:21:48;10.98;;;7.55;;
74941;SDS011;63506;49.346;8.798;2024-01-30T11:24:39;13.50;;;6.75;;
74941;SDS011;63506;49.346;8.798;2024-01-30T11:27:26;9.98;;;6.15;;
74941;SDS011;63506;49.346;8.798;2024-01-30T11:30:21;8.25;;;5.88;;
74941;SDS011;63506;49.346;8.798;2024-01-30T11:33:09;10.27;;;6.80;;
74941;SDS011;63506;49.346;8.798;2024-01-30T11:35:56;11.32;;;6.90;;
74941;SDS011;63506;49.346;8.798;2024-01-30T11:38:45;11.57;;;7.05;;
74941;SDS011;63506;49.346;8.798;2024-01-30T11:41:31;12.20;;;6.30;;
74941;SDS011;63506;49.346;8.798;2024-01-30T11:44:16;11.68;;;6.88;;
74941;SDS011;63506;49.346;8.798;2024-01-30T11:47:07;12.25;;;6.85;;
74941;SDS011;63506;49.346;8.798;2024-01-30T11:49:53;10.30;;;6.55;;
74941;SDS011;63506;49.346;8.798;2024-01-30T11:52:39;7.78;;;5.70;;
74941;SDS011;63506;49.346;8.798;2024-01-30T11:55:30;13.10;;;6.47;;
74941;SDS011;63506;49.346;8.798;2024-01-30T11:58:16;11.20;;;6.80;;
74941;SDS011;63506;49.346;8.798;2024-01-30T12:01:02;12.57;;;7.50;;
74941;SDS011;63506;49.346;8.798;2024-01-30T12:03:50;12.73;;;6.95;;
74941;SDS011;63506;49.346;8.798;2024-01-30T12:06:39;16.10;;;7.95;;
74941;SDS011;63506;49.346;8.798;2024-01-30T12:09:25;13.23;;;8.75;;
74941;SDS011;63506;49.346;8.798;2024-01-30T12:12:13;12.23;;;7.32;;
74941;SDS011;63506;49.346;8.798;2024-01-30T12:14:59;13.27;;;6.97;;
74941;SDS011;63506;49.346;8.798;2024-01-30T12:17:45;13.05;;;6.97;;
74941;SDS011;63506;49.346;8.798;2024-01-30T12:20:31;10.55;;;6.95;;
74941;SDS011;63506;49.346;8.798;2024-01-30T12:23:17;13.32;;;8.40;;
74941;SDS011;63506;49.346;8.798;2024-01-30T12:26:05;13.32;;;8.27;;
74941;SDS011;63506;49.346;8.798;2024-01-30T12:28:55;14.23;;;8.25;;
74941;SDS011;63506;49.346;8.798;2024-01-30T12:31:42;16.95;;;9.02;;
74941;SDS011;63506;49.346;8.798;2024-01-30T12:34:29;14.68;;;8.30;;
74941;SDS011;63506;49.346;8.798;2024-01-30T12:37:14;18.00;;;8.68;;
74941;SDS011;63506;49.346;8.798;2024-01-30T12:40:07;15.40;;;9.35;;
74941;SDS011;63506;49.346;8.798;2024-01-30T12:42:53;17.65;;;9.77;;
74941;SDS011;63506;49.346;8.798;2024-01-30T12:45:40;11.93;;;7.97;;
74941;SDS011;63506;49.346;8.798;2024-01-30T12:48:26;14.80;;;7.82;;
74941;SDS011;63506;49.346;8.798;2024-01-30T12:51:14;16.38;;;8.15;;
74941;SDS011;63506;49.346;8.798;2024-01-30T12:54:03;13.50;;;7.28;;
74941;SDS011;63506;49.346;8.798;2024-01-30T12:59:36;13.93;;;7.43;;
74941;SDS011;63506;49.346;8.798;2024-01-30T13:02:23;11.88;;;7.50;;
74941;SDS011;63506;49.346;8.798;2024-01-30T13:05:10;12.27;;;6.85;;
74941;SDS011;63506;49.346;8.798;2024-01-30T13:07:59;13.18;;;8.50;;
74941;SDS011;63506;49.346;8.798;2024-01-30T13:10:45;13.77;;;6.82;;
74941;SDS011;63506;49.346;8.798;2024-01-30T13:13:31;12.82;;;7.72;;
74941;SDS011;63506;49.346;8.798;2024-01-30T13:16:17;11.23;;;7.65;;
74941;SDS011;63506;49.346;8.798;2024-01-30T13:19:04;12.30;;;8.02;;
74941;SDS011;63506;49.346;8.798;2024-01-30T13:21:50;12.55;;;7.55;;
74941;SDS011;63506;49.346;8.798;2024-01-30T13:24:36;12.57;;;7.10;;
74941;SDS011;63506;49.346;8.798;2024-01-30T13:27:22;12.30;;;7.65;;
74941;SDS011;63506;49.346;8.798;2024-01-30T13:30:10;11.18;;;7.68;;
74941;SDS011;63506;49.346;8.798;2024-01-30T13:32:57;12.65;;;7.43;;
74941;SDS011;63506;49.346;8.798;2024-01-30T13:35:44;15.65;;;8.32;;
74941;SDS011;63506;49.346;8.798;2024-01-30T13:38:30;13.32;;;7.95;;
74941;SDS011;63506;49.346;8.798;2024-01-30T13:41:18;12.80;;;7.97;;
74941;SDS011;63506;49.346;8.798;2024-01-30T13:44:05;11.02;;;7.60;;
74941;SDS011;63506;49.346;8.798;2024-01-30T13:46:51;12.02;;;7.30;;
74941;SDS011;63506;49.346;8.798;2024-01-30T13:49:40;14.38;;;7.57;;
74941;SDS011;63506;49.346;8.798;2024-01-30T13:52:27;15.38;;;8.27;;
74941;SDS011;63506;49.346;8.798;2024-01-30T13:55:13;10.63;;;6.75;;
74941;SDS011;63506;49.346;8.798;2024-01-30T13:57:59;15.48;;;7.63;;
74941;SDS011;63506;49.346;8.798;2024-01-30T14:00:46;14.15;;;7.75;;
74941;SDS011;63506;49.346;8.798;2024-01-30T14:03:32;10.38;;;7.15;;
74941;SDS011;63506;49.346;8.798;2024-01-30T14:06:43;12.77;;;7.78;;
74941;SDS011;63506;49.346;8.798;2024-01-30T14:09:31;15.00;;;8.10;;
74941;SDS011;63506;49.346;8.798;2024-01-30T14:12:17;13.60;;;8.20;;
74941;SDS011;63506;49.346;8.798;2024-01-30T14:15:03;15.20;;;8.18;;
74941;SDS011;63506;49.346;8.798;2024-01-30T14:17:49;14.85;;;7.63;;
74941;SDS011;63506;49.346;8.798;2024-01-30T14:20:37;12.77;;;7.88;;
74941;SDS011;63506;49.346;8.798;2024-01-30T14:23:23;11.70;;;7.18;;
74941;SDS011;63506;49.346;8.798;2024-01-30T14:26:11;14.35;;;8.55;;
74941;SDS011;63506;49.346;8.798;2024-01-30T14:28:56;12.82;;;8.07;;
74941;SDS011;63506;49.346;8.798;2024-01-30T14:31:42;16.13;;;8.25;;
74941;SDS011;63506;49.346;8.798;2024-01-30T14:34:28;15.00;;;9.13;;
74941;SDS011;63506;49.346;8.798;2024-01-30T14:37:14;13.75;;;8.48;;
74941;SDS011;63506;49.346;8.798;2024-01-30T14:40:01;13.98;;;8.57;;
74941;SDS011;63506;49.346;8.798;2024-01-30T14:42:49;17.42;;;9.18;;
74941;SDS011;63506;49.346;8.798;2024-01-30T14:45:34;18.58;;;9.15;;
74941;SDS011;63506;49.346;8.798;2024-01-30T14:48:23;13.82;;;8.20;;
74941;SDS011;63506;49.346;8.798;2024-01-30T14:51:14;11.65;;;7.55;;
74941;SDS011;63506;49.346;8.798;2024-01-30T14:54:02;18.13;;;8.88;;
74941;SDS011;63506;49.346;8.798;2024-01-30T14:56:48;15.27;;;8.80;;
74941;SDS011;63506;49.346;8.798;2024-01-30T14:59:35;16.60;;;8.65;;
74941;SDS011;63506;49.346;8.798;2024-01-30T15:02:23;19.35;;;10.90;;
74941;SDS011;63506;49.346;8.798;2024-01-30T15:05:09;24.05;;;11.63;;
74941;SDS011;63506;49.346;8.798;2024-01-30T15:07:55;17.55;;;9.57;;
74941;SDS011;63506;49.346;8.798;2024-01-30T15:10:44;13.43;;;9.15;;
74941;SDS011;63506;49.346;8.798;2024-01-30T15:13:30;20.50;;;10.65;;
74941;SDS011;63506;49.346;8.798;2024-01-30T15:16:17;14.75;;;8.32;;
74941;SDS011;63506;49.346;8.798;2024-01-30T15:19:03;16.08;;;9.25;;
74941;SDS011;63506;49.346;8.798;2024-01-30T15:21:52;12.73;;;8.40;;
74941;SDS011;63506;49.346;8.798;2024-01-30T15:24:40;16.60;;;8.85;;
74941;SDS011;63506;49.346;8.798;2024-01-30T15:27:26;18.55;;;9.75;;
74941;SDS011;63506;49.346;8.798;2024-01-30T15:30:15;20.23;;;10.45;;
74941;SDS011;63506;49.346;8.798;2024-01-30T15:33:02;16.48;;;10.38;;
74941;SDS011;63506;49.346;8.798;2024-01-30T15:35:48;16.90;;;9.38;;
74941;SDS011;63506;49.346;8.798;2024-01-30T15:38:34;20.55;;;10.75;;
74941;SDS011;63506;49.346;8.798;2024-01-30T15:41:20;22.38;;;11.02;;
74941;SDS011;63506;49.346;8.798;2024-01-30T15:44:07;17.30;;;10.38;;
74941;SDS011;63506;49.346;8.798;2024-01-30T15:46:53;15.95;;;9.55;;
74941;SDS011;63506;49.346;8.798;2024-01-30T15:49:43;13.55;;;8.38;;
74941;SDS011;63506;49.346;8.798;2024-01-30T15:52:30;14.00;;;8.82;;
74941;SDS011;63506;49.346;8.798;2024-01-30T15:55:18;17.17;;;9.90;;
74941;SDS011;63506;49.346;8.798;2024-01-30T15:58:05;20.70;;;10.82;;
74941;SDS011;63506;49.346;8.798;2024-01-30T16:00:51;24.58;;;10.52;;
74941;SDS011;63506;49.346;8.798;2024-01-30T16:03:38;18.38;;;9.43;;
74941;SDS011;63506;49.346;8.798;2024-01-30T16:06:28;17.30;;;8.75;;
74941;SDS011;63506;49.346;8.798;2024-01-30T16:09:16;16.25;;;10.00;;
74941;SDS011;63506;49.346;8.798;2024-01-30T16:12:25;17.27;;;10.52;;
74941;SDS011;63506;49.346;8.798;2024-01-30T16:15:31;18.20;;;9.18;;
74941;SDS011;63506;49.346;8.798;2024-01-30T16:18:37;16.70;;;10.45;;
74941;SDS011;63506;49.346;8.798;2024-01-30T16:21:45;15.82;;;9.50;;
74941;SDS011;63506;49.346;8.798;2024-01-30T16:24:49;17.88;;;10.80;;
74941;SDS011;63506;49.346;8.798;2024-01-30T16:28:01;18.70;;;10.00;;
74941;SDS011;63506;49.346;8.798;2024-01-30T16:31:12;20.40;;;11.00;;
74941;SDS011;63506;49.346;8.798;2024-01-30T16:34:28;15.95;;;9.98;;
74941;SDS011;63506;49.346;8.798;2024-01-30T16:37:41;20.75;;;11.40;;
74941;SDS011;63506;49.346;8.798;2024-01-30T16:40:53;19.70;;;11.23;;
74941;SDS011;63506;49.346;8.798;2024-01-30T16:44:04;17.85;;;10.40;;
74941;SDS011;63506;49.346;8.798;2024-01-30T16:47:12;20.52;;;12.40;;
74941;SDS011;63506;49.346;8.798;2024-01-30T16:50:24;18.23;;;10.68;;